sensor_id;sensor_type;location;lat;lon;timestamp;P1;durP1;ratioP1;P2;durP2;ratioP2
28455;SDS011;15682;56.742;38.866;2022-08-19T00:01:23;8.2;;;3.2;;
28455;SDS011;15682;56.742;38.866;2022-08-19T00:03:23;14.0;;;3.6;;
28455;SDS011;15682;56.742;38.866;2022-08-19T00:05:23;7.6;;;3.1;;
28455;SDS011;15682;56.742;38.866;2022-08-19T00:07:24;6.3;;;3.1;;
28455;SDS011;15682;56.742;38.866;2022-08-19T00:09:24;11.0;;;3.4;;
28455;SDS011;15682;56.742;38.866;2022-08-19T00:11:24;10.3;;;3.3;;
28455;SDS011;15682;56.742;38.866;2022-08-19T00:13:25;9.5;;;3.5;;
28455;SDS011;15682;56.742;38.866;2022-08-19T00:15:25;13.0;;;3.7;;
28455;SDS011;15682;56.742;38.866;2022-08-19T00:17:25;9.0;;;3.4;;
28455;SDS011;15682;56.742;38.866;2022-08-19T00:19:26;10.1;;;3.3;;
28455;SDS011;15682;56.742;38.866;2022-08-19T00:21:27;13.8;;;3.6;;
28455;SDS011;15682;56.742;38.866;2022-08-19T00:23:26;11.0;;;3.5;;
28455;SDS011;15682;56.742;38.866;2022-08-19T00:25:27;8.8;;;3.6;;
28455;SDS011;15682;56.742;38.866;2022-08-19T00:27:27;8.1;;;3.4;;
28455;SDS011;15682;56.742;38.866;2022-08-19T00:29:28;10.2;;;3.9;;
28455;SDS011;15682;56.742;38.866;2022-08-19T00:31:28;10.7;;;3.7;;
28455;SDS011;15682;56.742;38.866;2022-08-19T00:33:28;12.2;;;3.7;;
28455;SDS011;15682;56.742;38.866;2022-08-19T00:35:29;13.2;;;3.8;;
28455;SDS011;15682;56.742;38.866;2022-08-19T00:37:29;10.6;;;3.5;;
28455;SDS011;15682;56.742;38.866;2022-08-19T00:39:29;11.6;;;3.5;;
28455;SDS011;15682;56.742;38.866;2022-08-19T00:41:30;10.9;;;3.6;;
28455;SDS011;15682;56.742;38.866;2022-08-19T00:43:30;12.4;;;3.8;;
28455;SDS011;15682;56.742;38.866;2022-08-19T00:45:30;9.0;;;3.9;;
28455;SDS011;15682;56.742;38.866;2022-08-19T00:47:31;9.9;;;4.0;;
28455;SDS011;15682;56.742;38.866;2022-08-19T00:49:32;13.7;;;4.4;;
28455;SDS011;15682;56.742;38.866;2022-08-19T00:51:31;14.0;;;3.8;;
28455;SDS011;15682;56.742;38.866;2022-08-19T00:53:32;15.1;;;4.4;;
28455;SDS011;15682;56.742;38.866;2022-08-19T00:55:32;11.0;;;4.2;;
28455;SDS011;15682;56.742;38.866;2022-08-19T00:57:34;11.4;;;4.2;;
28455;SDS011;15682;56.742;38.866;2022-08-19T00:59:33;11.0;;;4.5;;
28455;SDS011;15682;56.742;38.866;2022-08-19T01:01:33;11.3;;;4.5;;
28455;SDS011;15682;56.742;38.866;2022-08-19T01:03:33;12.2;;;4.5;;
28455;SDS011;15682;56.742;38.866;2022-08-19T01:05:34;11.2;;;4.6;;
28455;SDS011;15682;56.742;38.866;2022-08-19T01:07:34;17.4;;;4.8;;
28455;SDS011;15682;56.742;38.866;2022-08-19T01:09:34;15.6;;;5.1;;
28455;SDS011;15682;56.742;38.866;2022-08-19T01:11:36;11.5;;;4.2;;
28455;SDS011;15682;56.742;38.866;2022-08-19T01:13:35;17.4;;;5.0;;
28455;SDS011;15682;56.742;38.866;2022-08-19T01:15:38;13.6;;;5.2;;
28455;SDS011;15682;56.742;38.866;2022-08-19T01:17:36;12.8;;;4.9;;
28455;SDS011;15682;56.742;38.866;2022-08-19T01:19:37;18.1;;;5.1;;
28455;SDS011;15682;56.742;38.866;2022-08-19T01:21:38;12.9;;;5.4;;
28455;SDS011;15682;56.742;38.866;2022-08-19T01:23:37;12.9;;;4.9;;
28455;SDS011;15682;56.742;38.866;2022-08-19T01:25:39;15.0;;;5.4;;
28455;SDS011;15682;56.742;38.866;2022-08-19T01:27:38;15.9;;;5.3;;
28455;SDS011;15682;56.742;38.866;2022-08-19T01:29:38;14.1;;;5.0;;
28455;SDS011;15682;56.742;38.866;2022-08-19T01:31:38;14.4;;;5.6;;
28455;SDS011;15682;56.742;38.866;2022-08-19T01:33:38;14.7;;;5.5;;
28455;SDS011;15682;56.742;38.866;2022-08-19T01:35:39;17.3;;;6.5;;
28455;SDS011;15682;56.742;38.866;2022-08-19T01:37:43;13.7;;;5.7;;
28455;SDS011;15682;56.742;38.866;2022-08-19T01:39:39;14.6;;;5.8;;
28455;SDS011;15682;56.742;38.866;2022-08-19T01:41:40;13.2;;;5.8;;
28455;SDS011;15682;56.742;38.866;2022-08-19T01:43:40;13.6;;;6.3;;
28455;SDS011;15682;56.742;38.866;2022-08-19T01:45:40;17.3;;;6.7;;
28455;SDS011;15682;56.742;38.866;2022-08-19T01:47:41;16.4;;;6.7;;
28455;SDS011;15682;56.742;38.866;2022-08-19T01:49:41;16.3;;;6.8;;
28455;SDS011;15682;56.742;38.866;2022-08-19T01:51:41;15.0;;;6.8;;
28455;SDS011;15682;56.742;38.866;2022-08-19T01:53:42;13.3;;;7.3;;
28455;SDS011;15682;56.742;38.866;2022-08-19T01:55:42;17.4;;;7.3;;
28455;SDS011;15682;56.742;38.866;2022-08-19T01:57:43;14.3;;;7.2;;
28455;SDS011;15682;56.742;38.866;2022-08-19T01:59:43;17.5;;;7.1;;
28455;SDS011;15682;56.742;38.866;2022-08-19T02:01:43;16.9;;;7.5;;
28455;SDS011;15682;56.742;38.866;2022-08-19T02:03:43;17.9;;;7.7;;
28455;SDS011;15682;56.742;38.866;2022-08-19T02:05:44;16.7;;;7.6;;
28455;SDS011;15682;56.742;38.866;2022-08-19T02:07:44;12.8;;;7.3;;
28455;SDS011;15682;56.742;38.866;2022-08-19T02:09:44;16.3;;;8.2;;
28455;SDS011;15682;56.742;38.866;2022-08-19T02:11:44;19.9;;;7.8;;
28455;SDS011;15682;56.742;38.866;2022-08-19T02:13:45;17.8;;;7.9;;
28455;SDS011;15682;56.742;38.866;2022-08-19T02:17:46;19.0;;;8.6;;
28455;SDS011;15682;56.742;38.866;2022-08-19T02:19:46;20.5;;;8.7;;
28455;SDS011;15682;56.742;38.866;2022-08-19T02:21:46;16.4;;;8.0;;
28455;SDS011;15682;56.742;38.866;2022-08-19T02:23:47;19.3;;;8.5;;
28455;SDS011;15682;56.742;38.866;2022-08-19T02:25:47;15.5;;;7.9;;
28455;SDS011;15682;56.742;38.866;2022-08-19T02:27:47;18.3;;;8.2;;
28455;SDS011;15682;56.742;38.866;2022-08-19T02:29:48;22.6;;;9.0;;
28455;SDS011;15682;56.742;38.866;2022-08-19T02:31:48;18.7;;;8.9;;
28455;SDS011;15682;56.742;38.866;2022-08-19T02:33:48;17.3;;;8.9;;
28455;SDS011;15682;56.742;38.866;2022-08-19T02:35:48;24.2;;;9.0;;
28455;SDS011;15682;56.742;38.866;2022-08-19T02:37:49;21.6;;;8.9;;
28455;SDS011;15682;56.742;38.866;2022-08-19T02:39:49;20.7;;;9.7;;
28455;SDS011;15682;56.742;38.866;2022-08-19T02:41:49;25.0;;;10.3;;
28455;SDS011;15682;56.742;38.866;2022-08-19T02:43:50;21.0;;;9.8;;
28455;SDS011;15682;56.742;38.866;2022-08-19T02:45:50;26.5;;;10.1;;
28455;SDS011;15682;56.742;38.866;2022-08-19T02:47:50;22.5;;;10.9;;
28455;SDS011;15682;56.742;38.866;2022-08-19T02:49:51;22.0;;;10.7;;
28455;SDS011;15682;56.742;38.866;2022-08-19T02:51:51;22.8;;;11.4;;
28455;SDS011;15682;56.742;38.866;2022-08-19T02:53:51;25.1;;;11.0;;
28455;SDS011;15682;56.742;38.866;2022-08-19T02:55:52;29.4;;;11.7;;
28455;SDS011;15682;56.742;38.866;2022-08-19T02:57:52;26.2;;;12.5;;
28455;SDS011;15682;56.742;38.866;2022-08-19T02:59:52;28.8;;;12.4;;
28455;SDS011;15682;56.742;38.866;2022-08-19T03:01:53;28.1;;;12.2;;
28455;SDS011;15682;56.742;38.866;2022-08-19T03:03:53;24.8;;;13.2;;
28455;SDS011;15682;56.742;38.866;2022-08-19T03:06:02;23.5;;;13.1;;
28455;SDS011;15682;56.742;38.866;2022-08-19T03:07:54;23.3;;;12.7;;
28455;SDS011;15682;56.742;38.866;2022-08-19T03:09:54;26.6;;;13.5;;
28455;SDS011;15682;56.742;38.866;2022-08-19T03:11:54;26.3;;;14.1;;
28455;SDS011;15682;56.742;38.866;2022-08-19T03:13:55;24.8;;;13.4;;
28455;SDS011;15682;56.742;38.866;2022-08-19T03:15:55;28.1;;;13.9;;
28455;SDS011;15682;56.742;38.866;2022-08-19T03:17:55;32.7;;;14.3;;
28455;SDS011;15682;56.742;38.866;2022-08-19T03:19:56;28.3;;;15.0;;
28455;SDS011;15682;56.742;38.866;2022-08-19T03:21:56;27.5;;;14.5;;
28455;SDS011;15682;56.742;38.866;2022-08-19T03:23:57;31.7;;;14.4;;
28455;SDS011;15682;56.742;38.866;2022-08-19T03:25:57;29.2;;;15.1;;
28455;SDS011;15682;56.742;38.866;2022-08-19T03:27:57;30.4;;;15.2;;
28455;SDS011;15682;56.742;38.866;2022-08-19T03:29:57;33.5;;;15.6;;
28455;SDS011;15682;56.742;38.866;2022-08-19T03:31:58;29.2;;;16.2;;
28455;SDS011;15682;56.742;38.866;2022-08-19T03:33:58;34.8;;;15.7;;
28455;SDS011;15682;56.742;38.866;2022-08-19T03:36:00;36.0;;;16.4;;
28455;SDS011;15682;56.742;38.866;2022-08-19T03:37:59;29.6;;;16.2;;
28455;SDS011;15682;56.742;38.866;2022-08-19T03:39:59;36.6;;;17.4;;
28455;SDS011;15682;56.742;38.866;2022-08-19T03:41:59;33.9;;;17.1;;
28455;SDS011;15682;56.742;38.866;2022-08-19T03:44:00;31.6;;;18.2;;
28455;SDS011;15682;56.742;38.866;2022-08-19T03:46:00;33.6;;;17.7;;
28455;SDS011;15682;56.742;38.866;2022-08-19T03:48:00;36.8;;;17.7;;
28455;SDS011;15682;56.742;38.866;2022-08-19T03:50:01;31.0;;;17.7;;
28455;SDS011;15682;56.742;38.866;2022-08-19T03:52:01;34.0;;;18.1;;
28455;SDS011;15682;56.742;38.866;2022-08-19T03:54:03;32.0;;;17.5;;
28455;SDS011;15682;56.742;38.866;2022-08-19T03:56:02;40.7;;;18.2;;
28455;SDS011;15682;56.742;38.866;2022-08-19T03:58:02;38.9;;;18.3;;
28455;SDS011;15682;56.742;38.866;2022-08-19T04:00:03;35.0;;;18.1;;
28455;SDS011;15682;56.742;38.866;2022-08-19T04:02:06;35.6;;;18.4;;
28455;SDS011;15682;56.742;38.866;2022-08-19T04:04:03;33.8;;;17.8;;
28455;SDS011;15682;56.742;38.866;2022-08-19T04:06:09;37.3;;;18.3;;
28455;SDS011;15682;56.742;38.866;2022-08-19T04:08:04;35.9;;;18.8;;
28455;SDS011;15682;56.742;38.866;2022-08-19T04:10:05;42.7;;;18.7;;
28455;SDS011;15682;56.742;38.866;2022-08-19T04:12:05;37.3;;;19.0;;
28455;SDS011;15682;56.742;38.866;2022-08-19T04:14:05;31.1;;;17.8;;
28455;SDS011;15682;56.742;38.866;2022-08-19T04:16:06;34.2;;;18.7;;
28455;SDS011;15682;56.742;38.866;2022-08-19T04:18:07;37.4;;;17.9;;
28455;SDS011;15682;56.742;38.866;2022-08-19T04:20:07;41.6;;;19.1;;
28455;SDS011;15682;56.742;38.866;2022-08-19T04:22:07;38.5;;;18.3;;
28455;SDS011;15682;56.742;38.866;2022-08-19T04:24:08;34.3;;;18.4;;
28455;SDS011;15682;56.742;38.866;2022-08-19T04:26:11;37.8;;;18.0;;
28455;SDS011;15682;56.742;38.866;2022-08-19T04:28:10;36.8;;;19.4;;
28455;SDS011;15682;56.742;38.866;2022-08-19T04:30:09;33.7;;;18.4;;
28455;SDS011;15682;56.742;38.866;2022-08-19T04:32:10;34.3;;;18.4;;
28455;SDS011;15682;56.742;38.866;2022-08-19T04:34:11;39.3;;;17.3;;
28455;SDS011;15682;56.742;38.866;2022-08-19T04:36:15;37.0;;;17.7;;
28455;SDS011;15682;56.742;38.866;2022-08-19T04:38:11;38.9;;;17.7;;
28455;SDS011;15682;56.742;38.866;2022-08-19T04:40:11;42.5;;;18.7;;
28455;SDS011;15682;56.742;38.866;2022-08-19T04:42:12;37.3;;;16.9;;
28455;SDS011;15682;56.742;38.866;2022-08-19T04:44:13;32.1;;;16.1;;
28455;SDS011;15682;56.742;38.866;2022-08-19T04:46:13;36.8;;;15.7;;
28455;SDS011;15682;56.742;38.866;2022-08-19T04:48:13;37.0;;;17.0;;
28455;SDS011;15682;56.742;38.866;2022-08-19T04:50:14;31.5;;;16.6;;
28455;SDS011;15682;56.742;38.866;2022-08-19T04:52:14;52.7;;;18.7;;
28455;SDS011;15682;56.742;38.866;2022-08-19T04:54:15;30.8;;;16.8;;
28455;SDS011;15682;56.742;38.866;2022-08-19T04:56:16;33.9;;;15.9;;
28455;SDS011;15682;56.742;38.866;2022-08-19T04:58:16;31.9;;;16.0;;
28455;SDS011;15682;56.742;38.866;2022-08-19T05:00:16;35.5;;;16.6;;
28455;SDS011;15682;56.742;38.866;2022-08-19T05:02:17;33.5;;;16.2;;
28455;SDS011;15682;56.742;38.866;2022-08-19T05:04:18;39.6;;;17.1;;
28455;SDS011;15682;56.742;38.866;2022-08-19T05:06:19;35.2;;;15.8;;
28455;SDS011;15682;56.742;38.866;2022-08-19T05:08:19;31.7;;;16.0;;
28455;SDS011;15682;56.742;38.866;2022-08-19T05:10:19;35.3;;;15.4;;
28455;SDS011;15682;56.742;38.866;2022-08-19T05:12:19;40.2;;;15.7;;
28455;SDS011;15682;56.742;38.866;2022-08-19T05:14:20;31.8;;;16.3;;
28455;SDS011;15682;56.742;38.866;2022-08-19T05:16:21;36.6;;;15.5;;
28455;SDS011;15682;56.742;38.866;2022-08-19T05:18:21;33.7;;;14.9;;
28455;SDS011;15682;56.742;38.866;2022-08-19T05:20:21;30.3;;;15.0;;
28455;SDS011;15682;56.742;38.866;2022-08-19T05:22:22;24.4;;;15.4;;
28455;SDS011;15682;56.742;38.866;2022-08-19T05:24:23;29.6;;;15.1;;
28455;SDS011;15682;56.742;38.866;2022-08-19T05:26:23;37.6;;;14.6;;
28455;SDS011;15682;56.742;38.866;2022-08-19T05:28:24;30.4;;;14.8;;
28455;SDS011;15682;56.742;38.866;2022-08-19T05:30:24;29.0;;;14.6;;
28455;SDS011;15682;56.742;38.866;2022-08-19T05:32:25;32.4;;;14.7;;
28455;SDS011;15682;56.742;38.866;2022-08-19T05:34:26;29.1;;;13.8;;
28455;SDS011;15682;56.742;38.866;2022-08-19T05:36:26;25.7;;;13.5;;
28455;SDS011;15682;56.742;38.866;2022-08-19T05:38:26;22.9;;;13.4;;
28455;SDS011;15682;56.742;38.866;2022-08-19T05:40:27;26.4;;;13.6;;
28455;SDS011;15682;56.742;38.866;2022-08-19T05:42:28;32.0;;;14.0;;
28455;SDS011;15682;56.742;38.866;2022-08-19T05:44:29;28.7;;;12.9;;
28455;SDS011;15682;56.742;38.866;2022-08-19T05:46:29;26.6;;;12.8;;
28455;SDS011;15682;56.742;38.866;2022-08-19T05:48:29;29.1;;;12.6;;
28455;SDS011;15682;56.742;38.866;2022-08-19T05:50:30;25.4;;;12.6;;
28455;SDS011;15682;56.742;38.866;2022-08-19T05:52:31;26.9;;;13.0;;
28455;SDS011;15682;56.742;38.866;2022-08-19T05:54:31;28.1;;;13.2;;
28455;SDS011;15682;56.742;38.866;2022-08-19T05:56:32;26.8;;;12.7;;
28455;SDS011;15682;56.742;38.866;2022-08-19T05:58:32;34.0;;;12.8;;
28455;SDS011;15682;56.742;38.866;2022-08-19T06:00:33;31.9;;;12.5;;
28455;SDS011;15682;56.742;38.866;2022-08-19T06:02:33;31.5;;;11.5;;
28455;SDS011;15682;56.742;38.866;2022-08-19T06:04:34;22.0;;;11.4;;
28455;SDS011;15682;56.742;38.866;2022-08-19T06:06:35;28.1;;;12.3;;
28455;SDS011;15682;56.742;38.866;2022-08-19T06:08:36;35.7;;;15.1;;
28455;SDS011;15682;56.742;38.866;2022-08-19T06:10:36;34.0;;;12.5;;
28455;SDS011;15682;56.742;38.866;2022-08-19T06:12:37;27.1;;;11.1;;
28455;SDS011;15682;56.742;38.866;2022-08-19T06:14:37;24.5;;;12.1;;
28455;SDS011;15682;56.742;38.866;2022-08-19T06:16:39;24.6;;;10.4;;
28455;SDS011;15682;56.742;38.866;2022-08-19T06:18:39;20.2;;;10.5;;
28455;SDS011;15682;56.742;38.866;2022-08-19T06:20:39;31.2;;;11.3;;
28455;SDS011;15682;56.742;38.866;2022-08-19T06:22:40;32.4;;;11.5;;
28455;SDS011;15682;56.742;38.866;2022-08-19T06:24:40;31.8;;;12.5;;
28455;SDS011;15682;56.742;38.866;2022-08-19T06:26:42;39.0;;;11.5;;
28455;SDS011;15682;56.742;38.866;2022-08-19T06:28:42;34.0;;;12.0;;
28455;SDS011;15682;56.742;38.866;2022-08-19T06:30:42;28.3;;;10.8;;
28455;SDS011;15682;56.742;38.866;2022-08-19T06:32:43;23.6;;;9.9;;
28455;SDS011;15682;56.742;38.866;2022-08-19T06:34:44;30.6;;;10.4;;
28455;SDS011;15682;56.742;38.866;2022-08-19T06:36:45;21.5;;;10.1;;
28455;SDS011;15682;56.742;38.866;2022-08-19T06:38:45;25.2;;;9.1;;
28455;SDS011;15682;56.742;38.866;2022-08-19T06:40:45;23.1;;;10.1;;
28455;SDS011;15682;56.742;38.866;2022-08-19T06:42:46;22.3;;;9.7;;
28455;SDS011;15682;56.742;38.866;2022-08-19T06:44:47;24.8;;;9.8;;
28455;SDS011;15682;56.742;38.866;2022-08-19T06:46:47;18.2;;;8.2;;
28455;SDS011;15682;56.742;38.866;2022-08-19T06:48:48;24.0;;;8.6;;
28455;SDS011;15682;56.742;38.866;2022-08-19T06:50:48;32.9;;;9.5;;
28455;SDS011;15682;56.742;38.866;2022-08-19T06:52:49;25.1;;;9.8;;
28455;SDS011;15682;56.742;38.866;2022-08-19T06:54:50;27.8;;;8.9;;
28455;SDS011;15682;56.742;38.866;2022-08-19T06:56:51;17.5;;;8.8;;
28455;SDS011;15682;56.742;38.866;2022-08-19T06:58:51;28.6;;;8.9;;
28455;SDS011;15682;56.742;38.866;2022-08-19T07:00:52;27.9;;;8.9;;
28455;SDS011;15682;56.742;38.866;2022-08-19T07:02:52;32.5;;;8.3;;
28455;SDS011;15682;56.742;38.866;2022-08-19T07:04:53;30.2;;;7.7;;
28455;SDS011;15682;56.742;38.866;2022-08-19T07:06:56;17.6;;;7.9;;
28455;SDS011;15682;56.742;38.866;2022-08-19T07:08:54;24.9;;;8.3;;
28455;SDS011;15682;56.742;38.866;2022-08-19T07:10:54;24.1;;;8.1;;
28455;SDS011;15682;56.742;38.866;2022-08-19T07:12:55;25.5;;;6.9;;
28455;SDS011;15682;56.742;38.866;2022-08-19T07:14:56;36.7;;;7.7;;
28455;SDS011;15682;56.742;38.866;2022-08-19T07:16:56;31.4;;;7.4;;
28455;SDS011;15682;56.742;38.866;2022-08-19T07:18:57;29.3;;;7.1;;
28455;SDS011;15682;56.742;38.866;2022-08-19T07:21:02;23.8;;;6.9;;
28455;SDS011;15682;56.742;38.866;2022-08-19T07:22:58;27.2;;;7.0;;
28455;SDS011;15682;56.742;38.866;2022-08-19T07:24:58;22.1;;;7.1;;
28455;SDS011;15682;56.742;38.866;2022-08-19T07:27:00;19.0;;;7.0;;
28455;SDS011;15682;56.742;38.866;2022-08-19T07:28:59;21.4;;;5.9;;
28455;SDS011;15682;56.742;38.866;2022-08-19T07:31:00;17.3;;;6.4;;
28455;SDS011;15682;56.742;38.866;2022-08-19T07:33:00;17.6;;;5.9;;
28455;SDS011;15682;56.742;38.866;2022-08-19T07:35:01;24.5;;;5.8;;
28455;SDS011;15682;56.742;38.866;2022-08-19T07:37:02;30.9;;;6.3;;
28455;SDS011;15682;56.742;38.866;2022-08-19T07:39:03;25.5;;;5.8;;
28455;SDS011;15682;56.742;38.866;2022-08-19T07:41:02;29.4;;;6.3;;
28455;SDS011;15682;56.742;38.866;2022-08-19T07:43:03;26.8;;;6.3;;
28455;SDS011;15682;56.742;38.866;2022-08-19T07:45:04;19.7;;;5.2;;
28455;SDS011;15682;56.742;38.866;2022-08-19T07:47:04;18.8;;;6.1;;
28455;SDS011;15682;56.742;38.866;2022-08-19T07:49:05;31.2;;;6.1;;
28455;SDS011;15682;56.742;38.866;2022-08-19T07:51:06;19.3;;;6.0;;
28455;SDS011;15682;56.742;38.866;2022-08-19T07:53:05;18.6;;;5.4;;
28455;SDS011;15682;56.742;38.866;2022-08-19T07:55:06;17.9;;;5.6;;
28455;SDS011;15682;56.742;38.866;2022-08-19T07:57:07;15.5;;;5.8;;
28455;SDS011;15682;56.742;38.866;2022-08-19T07:59:07;22.6;;;5.4;;
28455;SDS011;15682;56.742;38.866;2022-08-19T08:01:09;21.7;;;5.7;;
28455;SDS011;15682;56.742;38.866;2022-08-19T08:03:08;18.0;;;5.0;;
28455;SDS011;15682;56.742;38.866;2022-08-19T08:05:09;23.8;;;5.1;;
28455;SDS011;15682;56.742;38.866;2022-08-19T08:07:09;26.2;;;5.0;;
28455;SDS011;15682;56.742;38.866;2022-08-19T08:09:10;26.2;;;5.1;;
28455;SDS011;15682;56.742;38.866;2022-08-19T08:11:10;16.1;;;4.7;;
28455;SDS011;15682;56.742;38.866;2022-08-19T08:13:11;17.7;;;4.7;;
28455;SDS011;15682;56.742;38.866;2022-08-19T08:15:12;12.4;;;4.6;;
28455;SDS011;15682;56.742;38.866;2022-08-19T08:17:12;18.1;;;5.2;;
28455;SDS011;15682;56.742;38.866;2022-08-19T08:19:12;18.5;;;4.5;;
28455;SDS011;15682;56.742;38.866;2022-08-19T08:21:12;18.5;;;4.6;;
28455;SDS011;15682;56.742;38.866;2022-08-19T08:23:13;20.9;;;4.7;;
28455;SDS011;15682;56.742;38.866;2022-08-19T08:25:14;16.5;;;4.4;;
28455;SDS011;15682;56.742;38.866;2022-08-19T08:27:14;18.9;;;4.7;;
28455;SDS011;15682;56.742;38.866;2022-08-19T08:29:14;21.3;;;5.2;;
28455;SDS011;15682;56.742;38.866;2022-08-19T08:31:15;20.3;;;5.0;;
28455;SDS011;15682;56.742;38.866;2022-08-19T08:33:17;15.8;;;4.8;;
28455;SDS011;15682;56.742;38.866;2022-08-19T08:35:17;18.0;;;5.0;;
28455;SDS011;15682;56.742;38.866;2022-08-19T08:37:16;17.5;;;5.3;;
28455;SDS011;15682;56.742;38.866;2022-08-19T08:39:19;14.7;;;4.3;;
28455;SDS011;15682;56.742;38.866;2022-08-19T08:41:19;22.1;;;4.8;;
28455;SDS011;15682;56.742;38.866;2022-08-19T08:43:20;20.9;;;5.0;;
28455;SDS011;15682;56.742;38.866;2022-08-19T08:45:18;23.3;;;5.1;;
28455;SDS011;15682;56.742;38.866;2022-08-19T08:47:19;20.5;;;5.2;;
28455;SDS011;15682;56.742;38.866;2022-08-19T08:49:24;24.5;;;5.2;;
28455;SDS011;15682;56.742;38.866;2022-08-19T08:51:25;14.9;;;4.7;;
28455;SDS011;15682;56.742;38.866;2022-08-19T08:53:20;23.4;;;5.2;;
28455;SDS011;15682;56.742;38.866;2022-08-19T08:55:22;24.2;;;5.3;;
28455;SDS011;15682;56.742;38.866;2022-08-19T08:57:23;17.2;;;5.3;;
28455;SDS011;15682;56.742;38.866;2022-08-19T08:59:24;14.8;;;4.9;;
28455;SDS011;15682;56.742;38.866;2022-08-19T09:01:22;13.0;;;4.8;;
28455;SDS011;15682;56.742;38.866;2022-08-19T09:03:23;25.6;;;5.2;;
28455;SDS011;15682;56.742;38.866;2022-08-19T09:05:24;22.7;;;5.2;;
28455;SDS011;15682;56.742;38.866;2022-08-19T09:07:26;23.3;;;5.4;;
28455;SDS011;15682;56.742;38.866;2022-08-19T09:09:25;17.5;;;4.8;;
28455;SDS011;15682;56.742;38.866;2022-08-19T09:11:31;14.8;;;5.1;;
28455;SDS011;15682;56.742;38.866;2022-08-19T09:13:26;16.8;;;5.1;;
28455;SDS011;15682;56.742;38.866;2022-08-19T09:15:28;14.7;;;4.8;;
28455;SDS011;15682;56.742;38.866;2022-08-19T09:17:27;23.9;;;5.5;;
28455;SDS011;15682;56.742;38.866;2022-08-19T09:19:27;22.2;;;4.8;;
28455;SDS011;15682;56.742;38.866;2022-08-19T09:21:27;30.6;;;5.6;;
28455;SDS011;15682;56.742;38.866;2022-08-19T09:23:28;25.1;;;5.1;;
28455;SDS011;15682;56.742;38.866;2022-08-19T09:25:28;17.2;;;4.2;;
28455;SDS011;15682;56.742;38.866;2022-08-19T09:27:29;22.1;;;5.1;;
28455;SDS011;15682;56.742;38.866;2022-08-19T09:29:29;46.1;;;5.8;;
28455;SDS011;15682;56.742;38.866;2022-08-19T09:31:30;30.6;;;5.7;;
28455;SDS011;15682;56.742;38.866;2022-08-19T09:33:30;18.7;;;5.6;;
28455;SDS011;15682;56.742;38.866;2022-08-19T09:35:31;21.0;;;4.9;;
28455;SDS011;15682;56.742;38.866;2022-08-19T09:37:31;25.0;;;4.7;;
28455;SDS011;15682;56.742;38.866;2022-08-19T09:39:32;25.7;;;4.3;;
28455;SDS011;15682;56.742;38.866;2022-08-19T09:41:32;19.3;;;4.6;;
28455;SDS011;15682;56.742;38.866;2022-08-19T09:43:33;20.7;;;4.7;;
28455;SDS011;15682;56.742;38.866;2022-08-19T09:45:33;15.2;;;4.6;;
28455;SDS011;15682;56.742;38.866;2022-08-19T09:47:34;15.1;;;4.5;;
28455;SDS011;15682;56.742;38.866;2022-08-19T09:49:34;16.7;;;4.5;;
28455;SDS011;15682;56.742;38.866;2022-08-19T09:51:35;18.4;;;4.8;;
28455;SDS011;15682;56.742;38.866;2022-08-19T09:53:35;28.4;;;5.4;;
28455;SDS011;15682;56.742;38.866;2022-08-19T09:55:41;23.8;;;6.4;;
28455;SDS011;15682;56.742;38.866;2022-08-19T09:57:36;27.0;;;5.5;;
28455;SDS011;15682;56.742;38.866;2022-08-19T09:59:38;19.0;;;5.1;;
28455;SDS011;15682;56.742;38.866;2022-08-19T10:01:37;21.8;;;5.1;;
28455;SDS011;15682;56.742;38.866;2022-08-19T10:03:38;25.1;;;5.6;;
28455;SDS011;15682;56.742;38.866;2022-08-19T10:05:38;37.7;;;5.7;;
28455;SDS011;15682;56.742;38.866;2022-08-19T10:07:39;24.3;;;5.2;;
28455;SDS011;15682;56.742;38.866;2022-08-19T10:09:39;29.7;;;6.3;;
28455;SDS011;15682;56.742;38.866;2022-08-19T10:11:40;24.6;;;5.6;;
28455;SDS011;15682;56.742;38.866;2022-08-19T10:13:40;26.0;;;5.4;;
28455;SDS011;15682;56.742;38.866;2022-08-19T10:15:41;19.3;;;4.7;;
28455;SDS011;15682;56.742;38.866;2022-08-19T10:17:41;17.1;;;4.8;;
28455;SDS011;15682;56.742;38.866;2022-08-19T10:19:42;24.4;;;5.3;;
28455;SDS011;15682;56.742;38.866;2022-08-19T10:21:42;22.5;;;5.2;;
28455;SDS011;15682;56.742;38.866;2022-08-19T10:23:44;18.3;;;4.7;;
28455;SDS011;15682;56.742;38.866;2022-08-19T10:25:43;27.6;;;5.6;;
28455;SDS011;15682;56.742;38.866;2022-08-19T10:27:44;16.3;;;4.8;;
28455;SDS011;15682;56.742;38.866;2022-08-19T10:29:44;17.1;;;5.2;;
28455;SDS011;15682;56.742;38.866;2022-08-19T10:31:45;25.3;;;5.0;;
28455;SDS011;15682;56.742;38.866;2022-08-19T10:33:46;17.0;;;4.8;;
28455;SDS011;15682;56.742;38.866;2022-08-19T10:35:46;24.7;;;5.2;;
28455;SDS011;15682;56.742;38.866;2022-08-19T10:37:46;20.5;;;4.8;;
28455;SDS011;15682;56.742;38.866;2022-08-19T10:39:47;15.7;;;5.1;;
28455;SDS011;15682;56.742;38.866;2022-08-19T10:41:47;18.7;;;5.6;;
28455;SDS011;15682;56.742;38.866;2022-08-19T10:43:50;19.8;;;4.5;;
28455;SDS011;15682;56.742;38.866;2022-08-19T10:45:51;19.4;;;4.5;;
28455;SDS011;15682;56.742;38.866;2022-08-19T10:47:49;24.5;;;4.6;;
28455;SDS011;15682;56.742;38.866;2022-08-19T10:49:49;15.7;;;4.5;;
28455;SDS011;15682;56.742;38.866;2022-08-19T10:51:50;19.8;;;4.8;;
28455;SDS011;15682;56.742;38.866;2022-08-19T10:53:50;16.5;;;4.5;;
28455;SDS011;15682;56.742;38.866;2022-08-19T10:55:51;20.1;;;5.2;;
28455;SDS011;15682;56.742;38.866;2022-08-19T10:57:51;27.0;;;5.6;;
28455;SDS011;15682;56.742;38.866;2022-08-19T10:59:52;21.2;;;5.3;;
28455;SDS011;15682;56.742;38.866;2022-08-19T11:01:52;28.5;;;4.8;;
28455;SDS011;15682;56.742;38.866;2022-08-19T11:03:53;13.6;;;4.5;;
28455;SDS011;15682;56.742;38.866;2022-08-19T11:05:57;18.4;;;4.8;;
28455;SDS011;15682;56.742;38.866;2022-08-19T11:07:54;21.5;;;5.0;;
28455;SDS011;15682;56.742;38.866;2022-08-19T11:09:54;15.7;;;4.4;;
28455;SDS011;15682;56.742;38.866;2022-08-19T11:11:55;11.3;;;4.5;;
28455;SDS011;15682;56.742;38.866;2022-08-19T11:13:55;18.9;;;5.1;;
28455;SDS011;15682;56.742;38.866;2022-08-19T11:15:56;16.8;;;4.8;;
28455;SDS011;15682;56.742;38.866;2022-08-19T11:17:56;16.9;;;4.4;;
28455;SDS011;15682;56.742;38.866;2022-08-19T11:19:57;37.3;;;5.5;;
28455;SDS011;15682;56.742;38.866;2022-08-19T11:21:57;21.2;;;5.2;;
28455;SDS011;15682;56.742;38.866;2022-08-19T11:23:58;35.9;;;6.2;;
28455;SDS011;15682;56.742;38.866;2022-08-19T11:25:58;14.1;;;4.5;;
28455;SDS011;15682;56.742;38.866;2022-08-19T11:27:58;16.6;;;4.2;;
28455;SDS011;15682;56.742;38.866;2022-08-19T11:29:59;18.5;;;4.5;;
28455;SDS011;15682;56.742;38.866;2022-08-19T11:32:00;40.2;;;5.4;;
28455;SDS011;15682;56.742;38.866;2022-08-19T11:34:01;28.3;;;5.5;;
28455;SDS011;15682;56.742;38.866;2022-08-19T11:36:00;34.3;;;5.9;;
28455;SDS011;15682;56.742;38.866;2022-08-19T11:38:01;32.4;;;5.8;;
28455;SDS011;15682;56.742;38.866;2022-08-19T11:40:02;33.8;;;6.8;;
28455;SDS011;15682;56.742;38.866;2022-08-19T11:42:02;28.8;;;6.1;;
28455;SDS011;15682;56.742;38.866;2022-08-19T11:44:03;24.0;;;5.6;;
28455;SDS011;15682;56.742;38.866;2022-08-19T11:46:04;22.2;;;5.3;;
28455;SDS011;15682;56.742;38.866;2022-08-19T11:48:04;20.5;;;5.4;;
28455;SDS011;15682;56.742;38.866;2022-08-19T11:50:04;22.7;;;4.9;;
28455;SDS011;15682;56.742;38.866;2022-08-19T11:52:04;17.8;;;5.3;;
28455;SDS011;15682;56.742;38.866;2022-08-19T11:54:05;19.4;;;5.3;;
28455;SDS011;15682;56.742;38.866;2022-08-19T11:56:06;19.5;;;5.0;;
28455;SDS011;15682;56.742;38.866;2022-08-19T11:58:06;23.4;;;5.2;;
28455;SDS011;15682;56.742;38.866;2022-08-19T12:00:07;15.6;;;4.9;;
28455;SDS011;15682;56.742;38.866;2022-08-19T12:02:07;12.0;;;4.3;;
28455;SDS011;15682;56.742;38.866;2022-08-19T12:04:07;18.5;;;5.6;;